createdAt,value
2018-02-10T00:02:26.866Z,1.70
2018-02-10T00:04:55.032Z,1.70
2018-02-10T00:07:23.160Z,1.80
2018-02-10T00:09:51.280Z,1.80
2018-02-10T00:12:19.406Z,1.80
2018-02-10T00:14:47.508Z,1.80
2018-02-10T00:17:15.620Z,1.80
2018-02-10T00:19:43.702Z,1.80
2018-02-10T00:22:12.205Z,1.80
2018-02-10T00:24:40.308Z,1.80
2018-02-10T00:27:09.188Z,1.80
2018-02-10T00:29:37.902Z,1.80
2018-02-10T00:32:06.037Z,1.80
2018-02-10T00:34:34.180Z,1.80
2018-02-10T00:37:02.343Z,1.80
2018-02-10T00:39:30.481Z,1.80
2018-02-10T00:41:58.605Z,1.70
2018-02-10T00:44:26.737Z,1.70
2018-02-10T00:46:54.911Z,1.70
2018-02-10T00:49:23.027Z,1.70
2018-02-10T00:51:51.144Z,1.70
2018-02-10T00:54:19.312Z,1.70
2018-02-10T00:56:47.865Z,1.70
2018-02-10T00:59:15.955Z,1.70
2018-02-10T01:01:44.071Z,1.70
2018-02-10T01:04:15.895Z,1.70
2018-02-10T01:06:44.105Z,1.70
2018-02-10T01:09:12.217Z,1.70
2018-02-10T01:11:40.333Z,1.60
2018-02-10T01:14:08.452Z,1.60
2018-02-10T01:16:36.565Z,1.60
2018-02-10T01:19:04.681Z,1.60
2018-02-10T01:21:32.788Z,1.50
2018-02-10T01:24:00.910Z,1.50
2018-02-10T01:26:29.234Z,1.50
2018-02-10T01:28:57.329Z,1.50
2018-02-10T01:31:25.466Z,1.40
2018-02-10T01:33:53.568Z,1.40
2018-02-10T01:36:21.703Z,1.40
2018-02-10T01:38:49.843Z,1.40
2018-02-10T01:41:18.212Z,1.40
2018-02-10T01:43:46.318Z,1.40
2018-02-10T01:46:14.421Z,1.30
2018-02-10T01:48:42.608Z,1.30
2018-02-10T01:51:10.854Z,1.30
2018-02-10T01:53:39.054Z,1.30
2018-02-10T02:09:02.209Z,1.20
2018-02-10T02:11:30.307Z,0.50
2018-02-10T02:13:58.895Z,0.50
2018-02-10T02:16:26.990Z,0.50
2018-02-10T02:18:55.102Z,0.50
2018-02-10T02:21:23.247Z,0.50
2018-02-10T02:23:51.352Z,0.60
2018-02-10T02:26:19.493Z,0.60
2018-02-10T02:28:47.599Z,0.70
2018-02-10T02:31:15.936Z,0.70
2018-02-10T02:33:44.067Z,0.70
2018-02-10T02:36:12.189Z,0.80
2018-02-10T02:38:40.307Z,0.80
2018-02-10T02:41:08.408Z,0.80
2018-02-10T02:43:36.519Z,0.90
2018-02-10T02:46:04.613Z,0.90
2018-02-10T02:48:32.753Z,0.90
2018-02-10T02:51:00.871Z,0.90
2018-02-10T02:53:29.013Z,1.00
2018-02-10T02:56:01.186Z,1.00
2018-02-10T02:58:29.301Z,1.00
2018-02-10T03:00:57.426Z,1.00
2018-02-10T03:03:25.600Z,1.00
2018-02-10T03:05:53.719Z,1.10
2018-02-10T03:08:21.816Z,1.10
2018-02-10T03:10:49.983Z,1.10
2018-02-10T03:13:18.080Z,1.10
2018-02-10T03:15:46.219Z,1.10
2018-02-10T03:34:20.278Z,1.10
2018-02-10T03:36:48.399Z,0.50
2018-02-10T03:39:16.520Z,0.50
2018-02-10T03:41:44.608Z,0.50
2018-02-10T03:44:12.727Z,0.60
2018-02-10T03:46:40.913Z,0.70
2018-02-10T03:49:09.032Z,0.80
2018-02-10T03:51:37.134Z,0.80
2018-02-10T03:54:05.284Z,0.90
2018-02-10T03:56:34.282Z,1.00
2018-02-10T03:59:02.401Z,1.00
2018-02-10T04:01:30.544Z,1.10
2018-02-10T04:03:58.651Z,1.10
2018-02-10T04:06:26.767Z,1.20
2018-02-10T04:08:54.873Z,1.20
2018-02-10T04:11:23.679Z,1.20
2018-02-10T04:13:51.763Z,1.20
2018-02-10T04:16:19.867Z,1.20
2018-02-10T04:18:47.987Z,1.30
2018-02-10T04:21:16.083Z,1.30
2018-02-10T04:23:44.323Z,1.30
2018-02-10T04:26:12.472Z,1.30
2018-02-10T04:28:41.360Z,1.30
2018-02-10T04:31:09.464Z,1.30
2018-02-10T04:33:37.555Z,1.30
2018-02-10T04:36:05.652Z,1.40
2018-02-10T04:38:33.738Z,1.40
2018-02-10T04:41:01.848Z,1.40
2018-02-10T04:43:30.082Z,1.40
2018-02-10T04:45:58.330Z,1.40
2018-02-10T04:48:27.270Z,1.40
2018-02-10T04:50:55.392Z,1.40
2018-02-10T04:53:23.496Z,1.40
2018-02-10T04:55:51.607Z,1.40
2018-02-10T04:58:19.728Z,1.40
2018-02-10T05:00:47.857Z,1.40
2018-02-10T05:03:16.029Z,1.40
2018-02-10T05:05:44.443Z,1.30
2018-02-10T05:08:12.577Z,1.30
2018-02-10T05:10:40.787Z,1.30
2018-02-10T05:13:09.043Z,1.30
2018-02-10T05:15:37.219Z,1.30
2018-02-10T05:18:05.340Z,1.40
2018-02-10T05:20:33.423Z,1.30
2018-02-10T05:23:01.602Z,1.30
2018-02-10T05:25:30.505Z,1.40
2018-02-10T05:27:58.995Z,1.30
2018-02-10T05:30:27.117Z,1.40
2018-02-10T05:32:55.207Z,1.40
2018-02-10T05:35:23.423Z,1.40
2018-02-10T05:37:51.508Z,1.40
2018-02-10T05:40:19.620Z,1.40
2018-02-10T05:42:47.782Z,1.40
2018-02-10T05:45:16.137Z,1.40
2018-02-10T05:47:44.252Z,1.50
2018-02-10T05:50:12.376Z,1.40
2018-02-10T05:52:40.502Z,1.50
2018-02-10T05:55:08.618Z,1.50
2018-02-10T05:57:36.730Z,1.50
2018-02-10T06:00:04.842Z,1.50
2018-02-10T06:02:33.021Z,1.50
2018-02-10T06:05:01.201Z,1.50
2018-02-10T06:07:29.321Z,1.50
2018-02-10T06:09:57.433Z,1.50
2018-02-10T06:12:25.725Z,1.50
2018-02-10T06:14:53.826Z,1.50
2018-02-10T06:17:21.954Z,1.60
2018-02-10T06:19:50.065Z,1.50
2018-02-10T06:22:18.161Z,1.60
2018-02-10T06:24:46.309Z,1.60
2018-02-10T06:27:14.631Z,1.60
2018-02-10T06:29:43.077Z,1.60
2018-02-10T06:32:11.191Z,1.60
2018-02-10T06:34:39.297Z,1.60
2018-02-10T06:37:07.479Z,1.60
2018-02-10T06:39:35.744Z,1.60
2018-02-10T06:42:03.979Z,1.60
2018-02-10T06:44:32.843Z,1.70
2018-02-10T06:47:00.942Z,1.60
2018-02-10T06:49:29.818Z,1.70
2018-02-10T06:51:57.915Z,1.70
2018-02-10T06:54:26.540Z,1.70
2018-02-10T06:56:54.676Z,1.70
2018-02-10T06:59:22.755Z,1.70
2018-02-10T07:01:50.908Z,1.70
2018-02-10T07:04:19.088Z,1.70
2018-02-10T07:06:47.186Z,1.80
2018-02-10T07:09:15.280Z,1.80
2018-02-10T07:11:43.694Z,1.80
2018-02-10T07:14:12.556Z,1.80
2018-02-10T07:16:40.697Z,1.80
2018-02-10T07:19:08.800Z,1.90
2018-02-10T07:21:36.943Z,1.90
2018-02-10T07:24:05.186Z,1.90
2018-02-10T07:26:33.381Z,2.00
2018-02-10T07:29:01.523Z,2.00
2018-02-10T07:31:29.614Z,2.00
2018-02-10T07:33:58.337Z,2.00
2018-02-10T07:36:26.451Z,2.10
2018-02-10T07:38:56.089Z,2.20
2018-02-10T07:41:24.240Z,2.10
2018-02-10T07:43:52.417Z,2.20
2018-02-10T07:46:20.551Z,2.30
2018-02-10T07:48:48.654Z,2.30
2018-02-10T07:51:17.531Z,2.80
2018-02-10T07:53:45.662Z,2.30
2018-02-10T07:56:13.767Z,2.40
2018-02-10T07:58:41.867Z,2.40
2018-02-10T08:01:09.975Z,2.50
2018-02-10T08:03:38.085Z,2.50
2018-02-10T08:06:06.343Z,2.50
2018-02-10T08:08:34.635Z,2.60
2018-02-10T08:11:02.929Z,2.60
2018-02-10T08:13:31.111Z,2.60
2018-02-10T08:15:59.237Z,2.60
2018-02-10T08:18:27.505Z,2.60
2018-02-10T08:20:55.728Z,2.60
2018-02-10T08:23:24.178Z,2.70
2018-02-10T08:25:52.416Z,2.70
2018-02-10T08:28:20.564Z,2.80
2018-02-10T08:30:48.826Z,2.80
2018-02-10T08:33:17.064Z,2.80
2018-02-10T08:35:45.364Z,2.90
2018-02-10T08:38:13.495Z,2.90
2018-02-10T08:40:41.626Z,3.00
2018-02-10T08:43:09.722Z,3.00
2018-02-10T08:45:37.848Z,3.00
2018-02-10T08:48:05.996Z,3.10
2018-02-10T08:50:34.136Z,3.10
2018-02-10T08:53:02.284Z,3.10
2018-02-10T08:55:30.390Z,3.10
2018-02-10T08:57:58.556Z,3.20
2018-02-10T09:00:26.754Z,3.20
2018-02-10T09:02:55.018Z,3.20
2018-02-10T09:05:23.240Z,3.20
2018-02-10T09:07:51.362Z,3.30
2018-02-10T09:10:19.487Z,3.30
2018-02-10T09:12:48.101Z,3.20
2018-02-10T09:15:16.272Z,3.20
2018-02-10T09:17:45.147Z,3.20
2018-02-10T09:20:13.267Z,3.20
2018-02-10T09:22:41.410Z,3.20
2018-02-10T09:25:09.504Z,3.20
2018-02-10T09:27:37.603Z,3.20
2018-02-10T09:30:05.723Z,3.20
2018-02-10T09:32:33.901Z,3.20
2018-02-10T09:35:02.009Z,3.20
2018-02-10T09:37:30.098Z,3.20
2018-02-10T09:39:58.204Z,3.20
2018-02-10T09:42:26.297Z,3.20
2018-02-10T09:44:54.404Z,3.20
2018-02-10T09:47:22.600Z,3.30
2018-02-10T09:49:50.752Z,3.30
2018-02-10T09:52:18.980Z,3.30
2018-02-10T09:54:47.859Z,3.40
2018-02-10T09:57:15.961Z,3.40
2018-02-10T09:59:44.090Z,3.40
2018-02-10T10:02:12.194Z,3.40
2018-02-10T10:04:40.294Z,3.50
2018-02-10T10:07:08.488Z,3.50
2018-02-10T10:09:37.118Z,3.50
2018-02-10T10:12:06.086Z,3.50
2018-02-10T10:14:34.196Z,3.50
2018-02-10T10:17:02.297Z,3.50
2018-02-10T10:19:30.410Z,3.50
2018-02-10T10:21:58.537Z,3.50
2018-02-10T10:24:26.717Z,3.60
2018-02-10T10:26:54.864Z,3.70
2018-02-10T10:29:22.989Z,3.80
2018-02-10T10:31:51.180Z,3.90
2018-02-10T10:34:19.343Z,4.00
2018-02-10T10:36:47.445Z,4.10
2018-02-10T10:39:15.565Z,4.20
2018-02-10T10:41:43.729Z,4.40
2018-02-10T10:44:11.896Z,4.50
2018-02-10T10:46:40.231Z,4.50
2018-02-10T10:49:08.345Z,4.60
2018-02-10T10:51:36.449Z,4.70
2018-02-10T10:54:04.576Z,4.70
2018-02-10T10:56:32.683Z,4.70
2018-02-10T10:59:00.768Z,4.70
2018-02-10T11:01:28.957Z,4.60
2018-02-10T11:03:57.213Z,4.60
2018-02-10T11:06:25.563Z,4.60
2018-02-10T11:08:53.673Z,4.50
2018-02-10T11:11:21.898Z,4.40
2018-02-10T11:13:50.005Z,4.50
2018-02-10T11:16:18.116Z,4.50
2018-02-10T11:18:46.278Z,4.60
2018-02-10T11:21:14.421Z,4.70
2018-02-10T11:23:42.527Z,4.80
2018-02-10T11:26:10.696Z,4.80
2018-02-10T11:28:38.898Z,4.90
2018-02-10T11:31:07.016Z,4.90
2018-02-10T11:33:35.360Z,5.00
2018-02-10T11:36:03.484Z,5.10
2018-02-10T11:38:31.656Z,5.10
2018-02-10T11:41:00.346Z,5.20
2018-02-10T11:43:28.490Z,5.30
2018-02-10T11:45:56.720Z,5.30
2018-02-10T11:48:25.390Z,5.40
2018-02-10T11:50:53.508Z,5.50
2018-02-10T11:53:21.606Z,5.50
2018-02-10T11:55:50.206Z,5.50
2018-02-10T11:58:19.164Z,5.50
2018-02-10T12:00:47.289Z,5.60
2018-02-10T12:03:15.463Z,5.60
2018-02-10T12:05:43.628Z,5.50
2018-02-10T12:08:11.687Z,5.50
2018-02-10T12:10:43.899Z,5.40
2018-02-10T12:13:12.795Z,5.30
2018-02-10T12:15:40.997Z,5.30
2018-02-10T12:18:09.171Z,5.30
2018-02-10T12:20:38.090Z,5.30
2018-02-10T12:23:06.191Z,5.30
2018-02-10T12:25:34.422Z,5.30
2018-02-10T12:28:02.605Z,5.20
2018-02-10T12:30:30.713Z,5.10
2018-02-10T12:32:58.815Z,5.10
2018-02-10T12:35:26.979Z,5.10
2018-02-10T12:37:55.142Z,5.10
2018-02-10T12:40:23.262Z,5.20
2018-02-10T12:42:51.470Z,5.20
2018-02-10T12:45:19.576Z,5.20
2018-02-10T12:47:55.230Z,5.20
2018-02-10T12:50:27.266Z,5.20
2018-02-10T12:52:56.186Z,5.20
2018-02-10T12:55:24.298Z,5.20
2018-02-10T12:57:52.422Z,5.20
2018-02-10T13:00:20.627Z,5.30
2018-02-10T13:02:49.632Z,5.40
2018-02-10T13:05:17.795Z,5.60
2018-02-10T13:07:45.902Z,5.70
2018-02-10T13:10:14.066Z,5.80
2018-02-10T13:12:42.208Z,5.90
2018-02-10T13:15:10.374Z,6.00
2018-02-10T13:17:38.497Z,6.00
2018-02-10T13:20:06.598Z,6.00
2018-02-10T13:22:34.730Z,6.00
2018-02-10T13:25:02.829Z,6.10
2018-02-10T13:27:31.057Z,6.10
2018-02-10T13:29:59.200Z,6.10
2018-02-10T13:32:27.300Z,6.10
2018-02-10T13:34:55.885Z,6.10
2018-02-10T13:37:24.112Z,6.10
2018-02-10T13:39:52.319Z,6.10
2018-02-10T13:42:21.239Z,6.10
2018-02-10T13:44:49.351Z,6.00
2018-02-10T13:47:18.306Z,5.90
2018-02-10T13:49:46.426Z,5.90
2018-02-10T13:52:14.519Z,5.80
2018-02-10T13:54:42.703Z,5.80
2018-02-10T13:57:11.496Z,5.70
2018-02-10T13:59:39.595Z,5.70
2018-02-10T14:02:07.715Z,5.60
2018-02-10T14:04:35.900Z,5.50
2018-02-10T14:07:04.042Z,5.40
2018-02-10T14:09:32.151Z,5.40
2018-02-10T14:12:00.446Z,5.30
2018-02-10T14:14:28.581Z,5.30
2018-02-10T14:16:56.781Z,5.30
2018-02-10T14:19:25.542Z,5.30
2018-02-10T14:21:53.690Z,5.30
2018-02-10T14:24:39.775Z,5.30
2018-02-10T14:27:10.114Z,5.30
2018-02-10T14:29:38.398Z,5.30
2018-02-10T14:32:06.502Z,5.30
2018-02-10T14:34:34.658Z,5.30
2018-02-10T14:37:02.751Z,5.30
2018-02-10T14:39:30.862Z,5.20
2018-02-10T14:41:58.952Z,5.20
2018-02-10T14:44:27.086Z,5.20
2018-02-10T14:46:55.198Z,5.10
2018-02-10T14:49:23.317Z,5.10
2018-02-10T14:51:51.639Z,5.10
2018-02-10T14:54:19.756Z,5.00
2018-02-10T14:56:47.867Z,4.90
2018-02-10T14:59:16.051Z,4.90
2018-02-10T15:01:44.445Z,4.80
2018-02-10T15:04:12.857Z,4.80
2018-02-10T15:06:40.970Z,4.70
2018-02-10T15:09:09.081Z,4.70
2018-02-10T15:11:37.189Z,4.70
2018-02-10T15:14:05.313Z,4.60
2018-02-10T15:16:33.510Z,4.60
2018-02-10T15:19:02.044Z,4.50
2018-02-10T15:21:30.219Z,4.40
2018-02-10T15:23:58.707Z,4.40
2018-02-10T15:26:26.834Z,4.30
2018-02-10T15:28:55.291Z,4.30
2018-02-10T15:31:41.556Z,4.30
2018-02-10T15:34:27.608Z,4.30
2018-02-10T15:36:56.617Z,4.30
2018-02-10T15:39:24.818Z,4.20
2018-02-10T15:41:53.136Z,4.30
2018-02-10T15:44:21.476Z,4.30
2018-02-10T15:46:49.626Z,4.20
2018-02-10T15:49:17.774Z,4.20
2018-02-10T15:51:45.990Z,4.20
2018-02-10T15:54:14.970Z,4.20
2018-02-10T15:56:43.256Z,4.20
2018-02-10T15:59:11.398Z,4.10
2018-02-10T16:01:39.520Z,4.10
2018-02-10T16:04:08.456Z,4.10
2018-02-10T16:06:36.939Z,4.10
2018-02-10T16:09:05.345Z,4.10
2018-02-10T16:11:34.221Z,4.10
2018-02-10T16:14:03.422Z,4.10
2018-02-10T16:16:31.679Z,4.00
2018-02-10T16:18:59.864Z,4.00
2018-02-10T16:21:28.129Z,4.00
2018-02-10T16:23:56.257Z,3.90
2018-02-10T16:26:24.407Z,3.90
2018-02-10T16:28:52.665Z,3.90
2018-02-10T16:31:20.833Z,3.80
2018-02-10T16:33:49.011Z,3.80
2018-02-10T16:36:17.156Z,3.80
2018-02-10T16:38:46.511Z,3.80
2018-02-10T16:41:14.819Z,3.80
2018-02-10T16:43:43.024Z,3.80
2018-02-10T16:46:11.149Z,3.80
2018-02-10T16:48:39.256Z,3.70
2018-02-10T16:51:07.396Z,3.70
2018-02-10T16:53:35.577Z,3.70
2018-02-10T16:56:03.697Z,3.70
2018-02-10T16:58:31.804Z,3.70
2018-02-10T17:00:59.970Z,3.70
2018-02-10T17:03:28.064Z,3.60
2018-02-10T17:05:56.967Z,3.50
2018-02-10T17:08:25.113Z,3.50
2018-02-10T17:10:53.254Z,3.50
2018-02-10T17:13:22.216Z,3.50
2018-02-10T17:15:50.326Z,3.50
2018-02-10T17:18:18.759Z,3.40
2018-02-10T17:20:46.860Z,3.40
2018-02-10T17:23:15.090Z,3.40
2018-02-10T17:25:43.952Z,3.40
2018-02-10T17:28:12.060Z,3.40
2018-02-10T17:30:40.154Z,3.40
2018-02-10T17:33:08.264Z,3.40
2018-02-10T17:35:36.359Z,3.40
2018-02-10T17:38:09.854Z,3.30
2018-02-10T17:40:38.089Z,3.30
2018-02-10T17:43:06.209Z,3.20
2018-02-10T17:45:35.112Z,3.20
2018-02-10T17:48:03.248Z,3.10
2018-02-10T17:50:31.804Z,3.10
2018-02-10T17:52:59.911Z,3.10
2018-02-10T17:55:28.011Z,3.20
2018-02-10T17:57:57.473Z,3.00
2018-02-10T18:00:25.610Z,3.00
2018-02-10T18:02:53.811Z,3.00
2018-02-10T18:05:22.945Z,3.00
2018-02-10T18:07:51.103Z,3.00
2018-02-10T18:10:19.205Z,3.00
2018-02-10T18:12:47.320Z,3.00
2018-02-10T18:15:15.420Z,2.90
2018-02-10T18:17:44.540Z,2.90
2018-02-10T18:20:13.485Z,2.90
2018-02-10T18:22:41.630Z,2.90
2018-02-10T18:25:09.746Z,2.90
2018-02-10T18:27:37.876Z,2.90
2018-02-10T18:30:06.037Z,3.00
2018-02-10T18:32:34.140Z,2.90
2018-02-10T18:35:02.257Z,3.00
2018-02-10T18:37:30.378Z,3.00
2018-02-10T18:39:58.508Z,3.00
2018-02-10T18:42:27.449Z,3.00
2018-02-10T18:44:55.571Z,3.10
2018-02-10T18:47:24.444Z,3.10
2018-02-10T18:49:52.861Z,3.00
2018-02-10T18:52:20.957Z,3.10
2018-02-10T18:54:49.072Z,3.00
2018-02-10T18:57:17.180Z,3.10
2018-02-10T18:59:45.281Z,3.10
2018-02-10T19:02:13.405Z,3.10
2018-02-10T19:04:41.511Z,3.10
2018-02-10T19:07:09.619Z,3.10
2018-02-10T19:09:37.743Z,3.10
2018-02-10T19:12:06.032Z,3.10
2018-02-10T19:14:34.170Z,3.10
2018-02-10T19:17:02.290Z,3.10
2018-02-10T19:19:30.448Z,3.10
2018-02-10T19:21:58.623Z,3.10
2018-02-10T19:24:27.475Z,3.10
2018-02-10T19:26:55.601Z,3.10
2018-02-10T19:29:23.713Z,3.10
2018-02-10T19:31:52.688Z,3.10
2018-02-10T19:34:20.832Z,3.00
2018-02-10T19:36:48.944Z,3.00
2018-02-10T19:39:17.764Z,3.00
2018-02-10T19:41:45.964Z,3.00
2018-02-10T19:44:14.087Z,3.00
2018-02-10T19:46:42.478Z,3.00
2018-02-10T19:49:11.370Z,3.00
2018-02-10T19:51:39.476Z,3.00
2018-02-10T19:54:07.617Z,3.00
2018-02-10T19:56:35.795Z,3.00
2018-02-10T19:59:03.899Z,3.00
2018-02-10T20:01:32.032Z,3.00
2018-02-10T20:04:00.155Z,3.00
2018-02-10T20:06:28.262Z,3.00
2018-02-10T20:08:56.382Z,3.00
2018-02-10T20:11:24.519Z,3.00
2018-02-10T20:13:52.643Z,3.00
2018-02-10T20:16:20.753Z,3.00
2018-02-10T20:18:48.884Z,3.00
2018-02-10T20:21:16.996Z,3.00
2018-02-10T20:23:45.102Z,2.90
2018-02-10T20:26:13.262Z,3.00
2018-02-10T20:28:42.135Z,3.00
2018-02-10T20:31:10.254Z,2.90
2018-02-10T20:33:38.377Z,3.00
2018-02-10T20:36:06.473Z,2.90
2018-02-10T20:38:34.596Z,3.00
2018-02-10T20:41:02.742Z,3.00
2018-02-10T20:43:31.739Z,2.90
2018-02-10T20:45:59.867Z,2.90
2018-02-10T20:48:28.760Z,3.60
2018-02-10T20:50:56.936Z,2.90
2018-02-10T20:53:25.119Z,3.00
2018-02-10T20:55:53.991Z,2.90
2018-02-10T20:58:22.109Z,2.90
2018-02-10T21:00:50.209Z,2.90
2018-02-10T21:03:18.350Z,2.90
2018-02-10T21:05:46.467Z,2.90
2018-02-10T21:08:14.601Z,2.90
2018-02-10T21:10:42.699Z,2.90
2018-02-10T21:13:11.292Z,2.90
2018-02-10T21:15:39.404Z,2.90
2018-02-10T21:18:07.744Z,2.80
2018-02-10T21:20:36.481Z,2.80
2018-02-10T21:23:04.566Z,2.80
2018-02-10T21:25:32.698Z,2.80
2018-02-10T21:28:01.614Z,2.80
2018-02-10T21:30:29.730Z,2.80
2018-02-10T21:32:58.782Z,2.80
2018-02-10T21:35:27.010Z,2.80
2018-02-10T21:37:55.116Z,2.80
2018-02-10T21:40:23.230Z,2.70
2018-02-10T21:42:51.315Z,2.80
2018-02-10T21:45:19.480Z,2.80
2018-02-10T21:47:47.912Z,2.70
2018-02-10T21:50:20.416Z,2.70
2018-02-10T21:52:48.541Z,2.70
2018-02-10T21:55:16.667Z,2.70
2018-02-10T21:57:44.787Z,2.70
2018-02-10T22:00:12.880Z,2.70
2018-02-10T22:02:40.989Z,2.70
2018-02-10T22:05:09.103Z,2.70
2018-02-10T22:07:37.261Z,2.70
2018-02-10T22:10:05.421Z,2.70
2018-02-10T22:12:33.677Z,2.70
2018-02-10T22:15:01.893Z,2.70
2018-02-10T22:17:30.119Z,2.70
2018-02-10T22:19:58.230Z,2.80
2018-02-10T22:22:26.483Z,2.80
2018-02-10T22:24:54.587Z,2.80
2018-02-10T22:27:22.729Z,2.70
2018-02-10T22:29:50.853Z,2.80
2018-02-10T22:32:18.959Z,2.80
2018-02-10T22:34:47.061Z,2.70
2018-02-10T22:37:15.209Z,2.70
2018-02-10T22:39:43.315Z,2.70
2018-02-10T22:42:11.448Z,2.70
2018-02-10T22:44:39.556Z,2.70
2018-02-10T22:47:07.652Z,2.70
2018-02-10T22:49:35.841Z,2.70
2018-02-10T22:52:03.930Z,2.70
2018-02-10T22:54:32.050Z,2.70
2018-02-10T22:57:00.146Z,2.60
2018-02-10T22:59:29.032Z,2.60
2018-02-10T23:01:57.162Z,2.60
2018-02-10T23:04:25.274Z,2.60
2018-02-10T23:06:53.404Z,2.60
2018-02-10T23:09:21.520Z,2.60
2018-02-10T23:11:50.380Z,2.60
2018-02-10T23:14:18.502Z,2.60
2018-02-10T23:16:47.364Z,2.60
2018-02-10T23:19:15.521Z,2.60
2018-02-10T23:21:43.628Z,2.60
2018-02-10T23:24:11.743Z,2.60
2018-02-10T23:26:39.892Z,2.60
2018-02-10T23:29:08.004Z,2.60
2018-02-10T23:31:36.168Z,3.00
2018-02-10T23:34:04.300Z,2.50
2018-02-10T23:36:33.230Z,2.50
2018-02-10T23:39:01.549Z,2.50
2018-02-10T23:41:29.667Z,2.50
2018-02-10T23:43:57.791Z,2.50
2018-02-10T23:46:25.904Z,2.40
2018-02-10T23:48:54.045Z,2.40
2018-02-10T23:51:22.179Z,2.40
2018-02-10T23:53:50.268Z,2.50
2018-02-10T23:56:18.407Z,2.50
2018-02-10T23:58:46.503Z,2.50
